Time;durP1;ratioP1;P1;durP2;ratioP2;P2;SDS_P1;SDS_P2;PMS_P1;PMS_P2;Temp;Humidity;BMP_temperature;BMP_pressure;BME280_temperature;BME280_humidity;BME280_pressure;Samples;Min_cycle;Max_cycle;Signal;HPM_P1;HPM_P2
2024/03/03 00:01:05;;;;;;;93.90;47.37;;;3.80;99.90;;;;;;6213918;23;20043;-74
2024/03/03 00:03:31;;;;;;;74.40;39.70;;;3.80;99.90;;;;;;6213311;23;20339;-74
2024/03/03 00:05:56;;;;;;;84.97;40.90;;;3.70;99.90;;;;;;6213333;23;20071;-74
2024/03/03 00:08:23;;;;;;;116.63;61.40;;;3.70;99.90;;;;;;6211876;23;20095;-74
2024/03/03 00:10:50;;;;;;;175.30;91.13;;;3.70;99.90;;;;;;6211766;23;20391;-74
2024/03/03 00:13:15;;;;;;;176.37;90.47;;;3.80;99.90;;;;;;6210922;23;20454;-74
2024/03/03 00:15:41;;;;;;;160.23;82.07;;;3.70;99.90;;;;;;6211684;23;19996;-74
2024/03/03 00:18:07;;;;;;;120.77;59.10;;;3.70;99.90;;;;;;6212565;23;20011;-74
2024/03/03 00:20:33;;;;;;;105.13;53.40;;;3.70;99.90;;;;;;6212746;23;20004;-74
2024/03/03 00:22:58;;;;;;;110.10;58.87;;;3.70;99.90;;;;;;6212111;23;20000;-74
2024/03/03 00:25:24;;;;;;;98.83;51.87;;;3.70;99.90;;;;;;6212003;23;20014;-74
2024/03/03 00:27:49;;;;;;;101.37;53.97;;;3.70;99.90;;;;;;6212555;23;19992;-74
2024/03/03 00:30:15;;;;;;;89.77;47.13;;;3.60;99.90;;;;;;6212813;23;20024;-74
2024/03/03 00:32:44;;;;;;;96.37;51.37;;;3.60;99.90;;;;;;6212412;23;20008;-74
2024/03/03 00:35:09;;;;;;;89.80;44.63;;;3.60;99.90;;;;;;6211741;23;20051;-74
2024/03/03 00:37:35;;;;;;;96.27;46.87;;;3.60;99.90;;;;;;6211922;23;20096;-74
2024/03/03 00:40:00;;;;;;;93.47;47.33;;;3.60;99.90;;;;;;6213089;23;20004;-74
2024/03/03 00:42:27;;;;;;;140.13;84.00;;;3.60;99.90;;;;;;6212195;23;20008;-74
2024/03/03 00:44:52;;;;;;;86.00;45.20;;;3.60;99.90;;;;;;6211636;23;20008;-74
2024/03/03 00:47:18;;;;;;;83.23;44.50;;;3.60;99.90;;;;;;6211856;23;20336;-74
2024/03/03 00:49:43;;;;;;;94.13;43.97;;;3.60;99.90;;;;;;6212693;23;20435;-74
2024/03/03 00:52:10;;;;;;;87.80;44.00;;;3.60;99.90;;;;;;6213375;23;20000;-74
2024/03/03 00:54:35;;;;;;;85.50;43.33;;;3.50;99.90;;;;;;6212402;23;20007;-74
2024/03/03 00:57:02;;;;;;;87.30;41.23;;;3.50;99.90;;;;;;6212047;23;20068;-74
2024/03/03 00:59:29;;;;;;;90.93;42.93;;;3.50;99.90;;;;;;6212241;23;20020;-74
2024/03/03 01:01:54;;;;;;;83.20;41.70;;;3.50;99.90;;;;;;6212920;23;20088;-74
2024/03/03 01:04:20;;;;;;;79.27;40.73;;;3.50;99.90;;;;;;6212131;23;20027;-74
2024/03/03 01:06:45;;;;;;;84.13;41.07;;;3.50;99.90;;;;;;6212383;23;19993;-74
2024/03/03 01:09:11;;;;;;;75.43;40.97;;;3.50;99.90;;;;;;6211619;23;20067;-74
2024/03/03 01:11:38;;;;;;;79.90;39.80;;;3.40;99.90;;;;;;6212015;23;20000;-73
2024/03/03 01:14:03;;;;;;;76.97;39.67;;;3.40;99.90;;;;;;6211395;23;20023;-74
2024/03/03 01:16:29;;;;;;;75.23;39.53;;;3.40;99.90;;;;;;6211387;23;20024;-74
2024/03/03 01:18:54;;;;;;;76.93;38.03;;;3.40;99.90;;;;;;6213179;23;20084;-74
2024/03/03 01:21:20;;;;;;;76.77;38.00;;;3.30;99.90;;;;;;6212097;23;20008;-74
2024/03/03 01:23:46;;;;;;;78.90;37.77;;;3.30;99.90;;;;;;6211676;23;20345;-74
2024/03/03 01:26:11;;;;;;;79.37;38.67;;;3.20;99.90;;;;;;6211569;23;20478;-74
2024/03/03 01:28:37;;;;;;;75.07;38.10;;;3.30;99.90;;;;;;6211811;23;20016;-74
2024/03/03 01:31:02;;;;;;;81.73;39.13;;;3.20;99.90;;;;;;6214225;23;20009;-74
2024/03/03 01:33:28;;;;;;;74.97;38.83;;;3.20;99.90;;;;;;6214755;23;20027;-73
2024/03/03 01:35:53;;;;;;;73.33;37.17;;;3.20;99.90;;;;;;6214608;23;20039;-74
2024/03/03 01:38:19;;;;;;;73.90;38.07;;;3.20;99.90;;;;;;6214019;23;20087;-74
2024/03/03 01:40:50;;;;;;;78.50;39.20;;;3.10;99.90;;;;;;6213890;23;20079;-74
2024/03/03 01:43:16;;;;;;;74.37;37.00;;;3.10;99.90;;;;;;6214208;23;20001;-74
2024/03/03 01:45:41;;;;;;;74.37;37.67;;;3.10;99.90;;;;;;6214027;23;20007;-74
2024/03/03 01:48:07;;;;;;;74.63;37.20;;;3.10;99.90;;;;;;6214045;23;20000;-73
2024/03/03 01:50:34;;;;;;;69.87;37.30;;;3.10;99.90;;;;;;6213172;23;20043;-74
2024/03/03 01:53:00;;;;;;;75.13;38.67;;;3.00;99.90;;;;;;6213581;23;20079;-74
2024/03/03 01:55:26;;;;;;;75.80;37.70;;;3.00;99.90;;;;;;6213197;23;20035;-74
2024/03/03 01:58:00;;;;;;;78.00;36.43;;;3.00;99.90;;;;;;6213800;23;20461;-74
2024/03/03 02:00:26;;;;;;;73.20;37.58;;;3.00;99.90;;;;;;6214764;23;20001;-74
2024/03/03 02:02:52;;;;;;;71.63;37.83;;;3.00;99.90;;;;;;6213675;23;20005;-74
2024/03/03 02:05:18;;;;;;;69.67;35.40;;;3.00;99.90;;;;;;6212908;23;20012;-74
2024/03/03 02:07:43;;;;;;;66.67;35.83;;;2.90;99.90;;;;;;6213181;23;20497;-74
2024/03/03 02:10:10;;;;;;;70.20;35.07;;;2.90;99.90;;;;;;6214221;23;20004;-74
2024/03/03 02:12:35;;;;;;;65.83;34.47;;;2.90;99.90;;;;;;6213756;23;20386;-74
2024/03/03 02:15:01;;;;;;;69.27;36.87;;;2.90;99.90;;;;;;6212831;23;19997;-74
2024/03/03 02:17:26;;;;;;;70.63;36.33;;;2.90;99.90;;;;;;6213021;23;20398;-74
2024/03/03 02:19:52;;;;;;;57.47;32.00;;;2.90;99.90;;;;;;6213361;23;20434;-74
2024/03/03 02:22:18;;;;;;;51.50;28.47;;;2.80;99.90;;;;;;6214193;23;19997;-74
2024/03/03 02:24:44;;;;;;;55.23;29.50;;;2.80;99.90;;;;;;6213771;23;20008;-74
2024/03/03 02:27:10;;;;;;;48.97;29.20;;;2.70;99.90;;;;;;6213629;23;20003;-74
2024/03/03 02:29:36;;;;;;;55.57;30.50;;;2.70;99.90;;;;;;6213557;23;20320;-74
2024/03/03 02:32:02;;;;;;;59.40;31.20;;;2.60;99.90;;;;;;6213067;23;20385;-73
2024/03/03 02:34:28;;;;;;;66.00;34.67;;;2.60;99.90;;;;;;6213336;23;20005;-74
2024/03/03 02:36:54;;;;;;;68.43;36.97;;;2.60;99.90;;;;;;6214985;23;20015;-74
2024/03/03 02:39:19;;;;;;;68.70;34.97;;;2.60;99.90;;;;;;6214297;23;20072;-74
2024/03/03 02:41:45;;;;;;;56.80;31.50;;;2.60;99.90;;;;;;6214547;23;20499;-74
2024/03/03 02:44:10;;;;;;;54.37;29.90;;;2.60;99.90;;;;;;6214127;23;20431;-74
2024/03/03 02:46:36;;;;;;;53.50;31.20;;;2.60;99.90;;;;;;6214147;23;20498;-74
2024/03/03 02:49:03;;;;;;;56.10;30.27;;;2.60;99.90;;;;;;6214876;23;20019;-73
2024/03/03 02:51:28;;;;;;;61.00;31.90;;;2.50;99.90;;;;;;6214246;23;20098;-74
2024/03/03 02:53:54;;;;;;;57.37;32.63;;;2.50;99.90;;;;;;6214175;23;20028;-74
2024/03/03 02:56:19;;;;;;;59.73;31.17;;;2.50;99.90;;;;;;6214469;23;20001;-74
2024/03/03 02:58:45;;;;;;;62.70;33.00;;;2.50;99.90;;;;;;6214833;23;20000;-74
2024/03/03 03:01:10;;;;;;;62.97;32.57;;;2.50;99.90;;;;;;6214331;23;20005;-75
2024/03/03 03:03:36;;;;;;;63.30;34.50;;;2.50;99.90;;;;;;6214360;23;20004;-74
2024/03/03 03:06:02;;;;;;;60.70;31.93;;;2.50;99.90;;;;;;6214320;23;20364;-74
2024/03/03 03:08:28;;;;;;;53.10;30.03;;;2.50;99.90;;;;;;6214578;23;20001;-74
2024/03/03 03:10:54;;;;;;;51.43;27.73;;;2.50;99.90;;;;;;6214295;23;20020;-74
2024/03/03 03:13:20;;;;;;;57.03;30.30;;;2.50;99.90;;;;;;6214139;23;20023;-74
2024/03/03 03:15:45;;;;;;;51.23;28.47;;;2.50;99.90;;;;;;6213321;23;20035;-74
2024/03/03 03:18:11;;;;;;;56.50;30.20;;;2.50;99.90;;;;;;6213614;23;20592;-74
2024/03/03 03:20:36;;;;;;;59.37;30.37;;;2.40;99.90;;;;;;6212443;23;20007;-74
2024/03/03 03:23:02;;;;;;;51.10;30.57;;;2.40;99.90;;;;;;6211438;23;20036;-74
2024/03/03 03:25:27;;;;;;;56.53;29.77;;;2.40;99.90;;;;;;6212116;23;20008;-74
2024/03/03 03:27:53;;;;;;;55.03;31.33;;;2.40;99.90;;;;;;6212756;23;20338;-74
2024/03/03 03:30:18;;;;;;;50.77;29.63;;;2.40;99.90;;;;;;6212202;23;20011;-74
2024/03/03 03:32:44;;;;;;;48.03;27.40;;;2.40;99.90;;;;;;6212726;23;20075;-74
2024/03/03 03:35:09;;;;;;;45.47;26.33;;;2.30;99.90;;;;;;6212858;23;20340;-74
2024/03/03 03:37:35;;;;;;;43.37;27.13;;;2.30;99.90;;;;;;6212716;23;20004;-74
2024/03/03 03:40:09;;;;;;;50.70;28.00;;;2.30;99.90;;;;;;6212638;23;20050;-74
2024/03/03 03:42:36;;;;;;;46.83;26.63;;;2.30;99.90;;;;;;6212464;23;20008;-74
2024/03/03 03:45:03;;;;;;;53.10;28.43;;;2.30;99.90;;;;;;6211331;23;20024;-74
2024/03/03 03:47:29;;;;;;;53.03;29.80;;;2.30;99.90;;;;;;6213213;23;20009;-74
2024/03/03 03:49:54;;;;;;;55.30;29.13;;;2.20;99.90;;;;;;6213177;23;20321;-74
2024/03/03 03:52:20;;;;;;;51.20;29.17;;;2.20;99.90;;;;;;6213449;23;20003;-74
2024/03/03 03:54:46;;;;;;;47.77;28.10;;;2.30;99.90;;;;;;6213438;23;20008;-74
2024/03/03 03:57:11;;;;;;;48.87;28.37;;;2.20;99.90;;;;;;6213651;23;20403;-74
2024/03/03 03:59:37;;;;;;;51.20;28.73;;;2.20;99.90;;;;;;6213660;23;20004;-74
2024/03/03 04:02:05;;;;;;;48.93;27.77;;;2.10;99.90;;;;;;6213739;23;20001;-74
2024/03/03 04:04:34;;;;;;;47.73;26.30;;;2.10;99.90;;;;;;6213057;23;19999;-74
2024/03/03 04:07:01;;;;;;;42.70;24.77;;;2.10;99.90;;;;;;6213528;23;20007;-75
2024/03/03 04:09:27;;;;;;;39.60;23.63;;;2.00;99.90;;;;;;6213220;23;20016;-74
2024/03/03 04:11:53;;;;;;;41.17;25.47;;;2.00;99.90;;;;;;6213456;23;20087;-74
2024/03/03 04:14:18;;;;;;;44.20;24.73;;;2.00;99.90;;;;;;6212931;23;20136;-74
2024/03/03 04:16:44;;;;;;;49.70;25.07;;;2.00;99.90;;;;;;6212839;23;20044;-74
2024/03/03 04:19:10;;;;;;;46.93;27.57;;;1.90;99.90;;;;;;6212760;23;20305;-74
2024/03/03 04:21:41;;;;;;;50.43;27.13;;;1.90;99.90;;;;;;6212032;23;20005;-74
2024/03/03 04:24:07;;;;;;;48.60;26.40;;;1.90;99.90;;;;;;6213502;23;20000;-74
2024/03/03 04:26:32;;;;;;;52.70;28.47;;;1.90;99.90;;;;;;6212660;23;20012;-74
2024/03/03 04:28:58;;;;;;;45.10;24.43;;;1.90;99.90;;;;;;6213352;23;20024;-74
2024/03/03 04:31:24;;;;;;;44.53;26.37;;;1.90;99.90;;;;;;6213847;23;20005;-74
2024/03/03 04:33:50;;;;;;;43.70;24.87;;;1.80;99.90;;;;;;6212760;23;20063;-74
2024/03/03 04:36:15;;;;;;;41.47;24.33;;;1.80;99.90;;;;;;6212938;23;20005;-74
2024/03/03 04:38:41;;;;;;;46.60;25.97;;;1.80;99.90;;;;;;6213562;23;20005;-74
2024/03/03 04:41:19;;;;;;;44.57;25.97;;;1.80;99.90;;;;;;6213256;23;20005;-74
2024/03/03 04:43:45;;;;;;;45.87;25.57;;;1.80;99.90;;;;;;6213293;23;20323;-74
2024/03/03 04:46:11;;;;;;;43.13;25.63;;;1.70;99.90;;;;;;6213100;23;20000;-74
2024/03/03 04:48:38;;;;;;;43.57;25.70;;;1.70;99.90;;;;;;6213155;23;20005;-74
2024/03/03 04:51:04;;;;;;;51.67;26.57;;;1.70;99.90;;;;;;6213656;23;20095;-74
2024/03/03 04:53:29;;;;;;;42.70;25.70;;;1.70;99.90;;;;;;6213057;23;20043;-74
2024/03/03 04:55:55;;;;;;;42.23;24.37;;;1.70;99.90;;;;;;6212610;23;20015;-74
2024/03/03 04:58:21;;;;;;;41.53;24.20;;;1.70;99.90;;;;;;6213358;23;20024;-74
2024/03/03 05:00:46;;;;;;;40.87;23.60;;;1.60;99.90;;;;;;6213264;23;20015;-74
2024/03/03 05:03:12;;;;;;;39.70;24.40;;;1.60;99.90;;;;;;6213683;23;20070;-74
2024/03/03 05:05:37;;;;;;;43.73;24.93;;;1.60;99.90;;;;;;6214615;23;20000;-74
2024/03/03 05:08:03;;;;;;;46.67;24.93;;;1.60;99.90;;;;;;6215608;23;20031;-74
2024/03/03 05:10:29;;;;;;;42.63;24.07;;;1.60;99.90;;;;;;6215157;23;20009;-74
2024/03/03 05:12:54;;;;;;;45.13;26.37;;;1.60;99.90;;;;;;6215085;23;20005;-74
2024/03/03 05:15:20;;;;;;;46.30;25.37;;;1.60;99.90;;;;;;6215135;23;20079;-74
2024/03/03 05:17:45;;;;;;;46.40;26.17;;;1.50;99.90;;;;;;6215745;23;20012;-74
2024/03/03 05:20:11;;;;;;;45.47;25.73;;;1.50;99.90;;;;;;6215825;23;20020;-74
2024/03/03 05:22:37;;;;;;;43.43;24.13;;;1.50;99.90;;;;;;6215289;23;20192;-74
2024/03/03 05:25:06;;;;;;;38.03;23.83;;;1.50;99.90;;;;;;6214584;23;20004;-74
2024/03/03 05:27:32;;;;;;;45.17;25.53;;;1.50;99.90;;;;;;6214978;23;20019;-74
2024/03/03 05:30:00;;;;;;;45.10;24.90;;;1.50;99.90;;;;;;6214971;23;20011;-74
2024/03/03 05:32:25;;;;;;;44.77;23.90;;;1.50;99.90;;;;;;6213459;23;20008;-74
2024/03/03 05:34:51;;;;;;;45.27;26.90;;;1.50;99.90;;;;;;6213124;23;20001;-74
2024/03/03 05:37:16;;;;;;;46.27;26.07;;;1.50;99.90;;;;;;6213804;23;20084;-74
2024/03/03 05:39:42;;;;;;;51.17;26.93;;;1.50;99.90;;;;;;6213464;23;20049;-74
2024/03/03 05:42:08;;;;;;;45.60;25.40;;;1.60;99.90;;;;;;6214131;23;20000;-74
2024/03/03 05:44:34;;;;;;;43.67;24.30;;;1.60;99.90;;;;;;6213445;23;20051;-74
2024/03/03 05:47:00;;;;;;;40.10;23.77;;;1.50;99.90;;;;;;6213656;23;20073;-74
2024/03/03 05:49:25;;;;;;;44.17;24.47;;;1.50;99.90;;;;;;6213333;23;20004;-74
2024/03/03 05:51:51;;;;;;;38.70;22.33;;;1.50;99.90;;;;;;6213727;23;20071;-74
2024/03/03 05:54:16;;;;;;;41.27;24.20;;;1.50;99.90;;;;;;6214357;23;19997;-74
2024/03/03 05:56:42;;;;;;;42.30;25.73;;;1.50;99.90;;;;;;6213641;23;20415;-74
2024/03/03 05:59:07;;;;;;;42.20;24.00;;;1.50;99.90;;;;;;6213194;23;20378;-74
2024/03/03 06:01:33;;;;;;;42.87;25.17;;;1.50;99.90;;;;;;6214199;23;20011;-74
2024/03/03 06:03:58;;;;;;;41.90;25.60;;;1.50;99.90;;;;;;6213823;23;20024;-74
2024/03/03 06:06:24;;;;;;;44.60;24.53;;;1.50;99.90;;;;;;6213503;23;20498;-74
2024/03/03 06:08:52;;;;;;;44.37;25.77;;;1.40;99.90;;;;;;6214492;23;20058;-74
2024/03/03 06:11:18;;;;;;;42.07;24.93;;;1.40;99.90;;;;;;6214519;23;20020;-75
2024/03/03 06:13:44;;;;;;;40.13;23.10;;;1.40;99.90;;;;;;6214912;23;20083;-74
2024/03/03 06:16:09;;;;;;;38.50;22.80;;;1.40;99.90;;;;;;6213599;23;20020;-74
2024/03/03 06:18:35;;;;;;;69.80;30.67;;;1.40;99.90;;;;;;6215086;23;20059;-74
2024/03/03 06:21:00;;;;;;;62.30;25.47;;;1.50;99.90;;;;;;6213135;23;20058;-74
2024/03/03 06:23:26;;;;;;;56.97;34.50;;;1.40;99.90;;;;;;6212229;23;20017;-74
2024/03/03 06:25:52;;;;;;;49.47;30.37;;;1.50;99.90;;;;;;6211090;23;20335;-77
2024/03/03 06:28:17;;;;;;;80.63;49.80;;;1.50;99.90;;;;;;6212915;23;20031;-77
2024/03/03 06:30:43;;;;;;;64.60;41.10;;;1.50;99.90;;;;;;6213517;23;20460;-77
2024/03/03 06:33:13;;;;;;;59.50;41.77;;;1.50;99.90;;;;;;6214023;23;20026;-77
2024/03/03 06:35:38;;;;;;;47.63;32.03;;;1.50;99.90;;;;;;6212391;23;19997;-77
2024/03/03 06:38:04;;;;;;;56.80;32.37;;;1.60;99.90;;;;;;6212887;23;20000;-77
2024/03/03 06:40:29;;;;;;;48.30;27.70;;;1.60;99.90;;;;;;6212677;23;20008;-77
2024/03/03 06:42:55;;;;;;;46.10;27.17;;;1.70;99.90;;;;;;6213085;23;20383;-77
2024/03/03 06:45:20;;;;;;;41.77;25.73;;;1.70;99.90;;;;;;6212506;23;20004;-77
2024/03/03 06:47:46;;;;;;;42.57;26.10;;;1.70;99.90;;;;;;6212159;23;20126;-77
2024/03/03 06:50:11;;;;;;;35.43;22.10;;;1.80;99.90;;;;;;6212525;23;20035;-77
2024/03/03 06:52:37;;;;;;;32.73;22.97;;;1.80;99.90;;;;;;6212285;23;20000;-77
2024/03/03 06:55:03;;;;;;;33.53;24.00;;;1.80;99.90;;;;;;6211978;23;20174;-77
2024/03/03 06:57:28;;;;;;;32.70;21.97;;;1.80;99.90;;;;;;6213621;23;20000;-77
2024/03/03 06:59:54;;;;;;;30.00;22.40;;;1.80;99.90;;;;;;6212911;23;20001;-77
2024/03/03 07:02:20;;;;;;;35.03;24.27;;;1.80;99.90;;;;;;6212202;23;20030;-77
2024/03/03 07:04:46;;;;;;;36.17;23.63;;;1.80;99.90;;;;;;6212286;23;19999;-77
2024/03/03 07:07:12;;;;;;;34.40;24.50;;;1.80;99.90;;;;;;6213515;23;19997;-77
2024/03/03 07:09:37;;;;;;;35.50;23.50;;;1.90;99.90;;;;;;6212713;23;20012;-77
2024/03/03 07:12:04;;;;;;;34.93;24.13;;;1.90;99.90;;;;;;6212228;23;20005;-77
2024/03/03 07:14:31;;;;;;;33.77;22.87;;;2.00;99.90;;;;;;6211821;23;20011;-77
2024/03/03 07:16:56;;;;;;;35.73;23.87;;;2.10;99.90;;;;;;6212423;23;20013;-72
2024/03/03 07:19:22;;;;;;;33.00;23.43;;;2.10;99.90;;;;;;6213702;23;20035;-72
2024/03/03 07:21:48;;;;;;;33.30;22.70;;;2.10;99.90;;;;;;6212993;23;20039;-72
2024/03/03 07:24:14;;;;;;;31.57;23.70;;;2.20;99.90;;;;;;6212013;23;20010;-72
2024/03/03 07:26:40;;;;;;;34.77;23.00;;;2.30;99.90;;;;;;6213358;23;20005;-73
2024/03/03 07:29:07;;;;;;;39.53;27.80;;;2.40;99.90;;;;;;6212946;23;20000;-74
2024/03/03 07:31:34;;;;;;;34.70;23.77;;;2.50;99.90;;;;;;6212174;23;20027;-73
2024/03/03 07:33:59;;;;;;;38.33;23.47;;;2.60;99.90;;;;;;6213576;23;20047;-73
2024/03/03 07:36:25;;;;;;;36.27;25.37;;;2.80;99.90;;;;;;6214266;23;20004;-75
2024/03/03 07:39:21;;;;;;;34.50;23.67;;;2.90;99.90;;;;;;6218101;23;20080;-74
2024/03/03 07:41:48;;;;;;;34.50;23.67;;;3.10;99.90;;;;;;6220184;23;20020;-75
2024/03/03 07:44:15;;;;;;;34.93;24.13;;;3.30;99.90;;;;;;6225457;23;20004;-73
2024/03/03 07:46:40;;;;;;;31.50;22.83;;;3.40;99.90;;;;;;6226312;23;20328;-74
2024/03/03 07:49:06;;;;;;;32.93;23.20;;;3.60;99.90;;;;;;6220062;23;20003;-73
2024/03/03 07:51:31;;;;;;;31.77;21.90;;;3.70;99.90;;;;;;6219448;23;20001;-74
2024/03/03 07:53:58;;;;;;;31.13;21.77;;;3.90;99.90;;;;;;6215384;23;20031;-68
2024/03/03 07:56:24;;;;;;;29.63;20.77;;;4.10;99.90;;;;;;6216965;23;20084;-75
2024/03/03 07:58:56;;;;;;;27.37;20.67;;;4.20;99.90;;;;;;5163619;27;20891;-75
2024/03/03 08:01:22;;;;;;;26.97;19.83;;;4.50;99.90;;;;;;5161113;27;20119;-75
2024/03/03 08:03:47;;;;;;;28.87;21.37;;;4.60;99.90;;;;;;5163584;27;20019;-74
2024/03/03 08:06:13;;;;;;;28.13;19.27;;;4.80;99.90;;;;;;5144592;27;20030;-74
2024/03/03 08:08:38;;;;;;;55.73;36.10;;;4.80;99.90;;;;;;5135032;27;20027;-74
2024/03/03 08:11:04;;;;;;;30.33;20.73;;;4.90;99.90;;;;;;5144714;27;20431;-74
2024/03/03 08:13:29;;;;;;;26.13;18.60;;;5.00;99.90;;;;;;5143193;27;20489;-75
2024/03/03 08:15:55;;;;;;;25.07;18.67;;;5.10;99.90;;;;;;5138615;27;20030;-74
2024/03/03 08:18:20;;;;;;;26.27;19.30;;;5.20;99.90;;;;;;5124071;27;20050;-75
2024/03/03 08:20:46;;;;;;;28.13;20.43;;;5.40;99.90;;;;;;5127273;27;20027;-75
2024/03/03 08:23:14;;;;;;;26.60;19.90;;;5.50;99.90;;;;;;5132511;27;20059;-75
2024/03/03 08:25:40;;;;;;;27.37;21.13;;;5.70;99.90;;;;;;5125170;27;20042;-75
2024/03/03 08:28:05;;;;;;;30.83;20.33;;;5.70;99.90;;;;;;5125963;27;20043;-76
2024/03/03 08:30:31;;;;;;;27.07;19.90;;;5.80;99.90;;;;;;5127433;27;20077;-76
2024/03/03 08:32:56;;;;;;;25.47;19.47;;;5.90;99.90;;;;;;5126271;27;20027;-76
2024/03/03 08:35:22;;;;;;;28.50;18.63;;;6.00;99.90;;;;;;5125688;27;20027;-75
2024/03/03 08:37:47;;;;;;;25.13;18.53;;;6.10;99.90;;;;;;5127878;27;20031;-75
2024/03/03 08:40:14;;;;;;;23.87;17.37;;;6.20;99.90;;;;;;5128334;27;20118;-78
2024/03/03 08:42:40;;;;;;;23.57;18.37;;;6.30;99.90;;;;;;5126149;27;20046;-74
2024/03/03 08:45:06;;;;;;;24.80;18.03;;;6.40;99.90;;;;;;5127840;27;20042;-74
2024/03/03 08:47:31;;;;;;;22.83;17.27;;;6.50;99.90;;;;;;5128490;27;20012;-75
2024/03/03 08:49:58;;;;;;;23.03;17.23;;;6.60;99.90;;;;;;5128615;27;20501;-75
2024/03/03 08:52:23;;;;;;;26.83;17.30;;;6.80;99.90;;;;;;5136039;27;20141;-75
2024/03/03 08:54:49;;;;;;;23.87;17.57;;;7.00;99.90;;;;;;5137854;27;20118;-76
2024/03/03 08:57:14;;;;;;;23.90;17.87;;;7.20;99.90;;;;;;5131923;27;20023;-75
2024/03/03 08:59:40;;;;;;;20.70;15.90;;;7.40;99.90;;;;;;5131137;27;20050;-76
2024/03/03 09:02:06;;;;;;;21.80;16.37;;;7.50;99.90;;;;;;5131543;27;20027;-74
2024/03/03 09:04:37;;;;;;;22.83;16.53;;;7.60;99.90;;;;;;5130103;27;20027;-75
2024/03/03 09:07:04;;;;;;;19.93;14.77;;;7.70;99.90;;;;;;5128565;27;20069;-75
2024/03/03 09:09:30;;;;;;;22.23;17.07;;;7.90;99.90;;;;;;5114822;27;20012;-75
2024/03/03 09:11:55;;;;;;;26.07;18.33;;;8.00;99.90;;;;;;5111695;27;20031;-75
2024/03/03 09:14:21;;;;;;;57.17;36.33;;;8.10;99.90;;;;;;5109738;27;20015;-76
2024/03/03 09:16:46;;;;;;;24.13;16.83;;;8.20;99.90;;;;;;5110524;27;20061;-75
2024/03/03 09:19:12;;;;;;;31.90;16.77;;;8.30;99.90;;;;;;5112584;27;20027;-75
2024/03/03 09:21:39;;;;;;;23.27;16.07;;;8.50;99.90;;;;;;5117275;27;20503;-75
2024/03/03 09:24:06;;;;;;;37.73;25.07;;;8.70;99.90;;;;;;5112467;27;20449;-76
2024/03/03 09:26:32;;;;;;;49.83;41.40;;;8.80;99.90;;;;;;5112321;27;20041;-75
2024/03/03 09:28:57;;;;;;;26.43;20.40;;;8.90;99.90;;;;;;5116201;27;20024;-71
2024/03/03 09:31:23;;;;;;;21.53;15.83;;;8.90;99.90;;;;;;5112935;27;20020;-74
2024/03/03 09:33:48;;;;;;;18.93;15.30;;;9.10;99.90;;;;;;5114490;27;20024;-74
2024/03/03 09:36:14;;;;;;;19.30;14.73;;;9.10;99.90;;;;;;5117118;27;20027;-73
2024/03/03 09:38:40;;;;;;;19.20;14.60;;;9.10;99.90;;;;;;5115017;27;20028;-74
2024/03/03 09:41:06;;;;;;;18.90;13.83;;;9.20;99.90;;;;;;5111665;27;20101;-73
2024/03/03 09:43:42;;;;;;;20.07;14.47;;;9.30;99.90;;;;;;5115035;27;20072;-73
2024/03/03 09:46:07;;;;;;;20.17;13.13;;;9.30;99.90;;;;;;5122901;27;20047;-73
2024/03/03 09:48:34;;;;;;;18.83;13.50;;;9.40;99.90;;;;;;5113556;27;20417;-73
2024/03/03 09:51:00;;;;;;;19.00;13.63;;;9.50;99.90;;;;;;5120184;27;20028;-73
2024/03/03 09:53:27;;;;;;;17.40;12.57;;;9.60;99.90;;;;;;5125690;27;20484;-72
2024/03/03 09:55:55;;;;;;;20.03;12.77;;;9.70;99.90;;;;;;5124559;27;20031;-73
2024/03/03 09:58:21;;;;;;;18.03;12.83;;;9.80;99.90;;;;;;5127311;27;20032;-73
2024/03/03 10:00:47;;;;;;;18.90;12.77;;;10.00;99.90;;;;;;5130011;27;20490;-73
2024/03/03 10:03:17;;;;;;;17.53;12.20;;;10.00;99.90;;;;;;5122690;27;20031;-73
2024/03/03 10:05:43;;;;;;;18.13;12.20;;;10.10;99.90;;;;;;5132248;27;20130;-73
2024/03/03 10:08:13;;;;;;;14.90;11.83;;;10.30;99.90;;;;;;5127920;27;20031;-73
2024/03/03 10:10:43;;;;;;;17.43;11.00;;;10.40;99.90;;;;;;5127159;27;20433;-74
2024/03/03 10:13:11;;;;;;;14.20;10.37;;;10.60;99.90;;;;;;5125351;27;20058;-73
2024/03/03 10:15:38;;;;;;;15.40;10.77;;;10.80;99.90;;;;;;5126795;27;20055;-73
2024/03/03 10:18:07;;;;;;;13.63;10.17;;;10.90;99.90;;;;;;5116257;27;20399;-73
2024/03/03 10:20:34;;;;;;;16.30;10.30;;;11.10;99.90;;;;;;5117784;27;20085;-73
2024/03/03 10:22:59;;;;;;;14.90;10.37;;;11.30;99.90;;;;;;5115002;27;20027;-74
2024/03/03 10:25:25;;;;;;;18.20;10.33;;;11.50;99.90;;;;;;5115545;27;20456;-73
2024/03/03 10:27:51;;;;;;;13.95;9.27;;;11.70;99.90;;;;;;5113592;27;20049;-74
2024/03/03 10:30:20;;;;;;;10.95;8.60;;;11.90;99.90;;;;;;5103553;28;20028;-73
2024/03/03 10:32:47;;;;;;;12.43;8.65;;;12.10;99.90;;;;;;5112735;28;20394;-73
2024/03/03 10:35:14;;;;;;;15.15;9.68;;;12.20;99.90;;;;;;5112307;28;20060;-73
2024/03/03 10:37:52;;;;;;;11.98;8.90;;;12.30;99.90;;;;;;5112665;27;20049;-73
2024/03/03 10:40:19;;;;;;;11.18;8.73;;;12.40;99.90;;;;;;5110736;28;20020;-73
2024/03/03 10:42:44;;;;;;;11.50;8.60;;;12.50;99.90;;;;;;5101622;28;20028;-73
2024/03/03 10:45:10;;;;;;;10.93;8.40;;;12.60;99.90;;;;;;5112472;28;20106;-73
2024/03/03 10:47:37;;;;;;;13.38;8.40;;;12.70;99.90;;;;;;5124856;27;20027;-74
2024/03/03 10:50:06;;;;;;;11.77;8.13;;;12.80;99.90;;;;;;5133595;27;20027;-74
2024/03/03 10:52:32;;;;;;;10.57;8.32;;;13.10;99.90;;;;;;5132483;27;20027;-73
2024/03/03 10:54:57;;;;;;;11.48;7.47;;;13.40;99.90;;;;;;5132158;27;20352;-73
2024/03/03 10:57:24;;;;;;;8.77;6.30;;;13.50;99.90;;;;;;5132908;27;20027;-73
2024/03/03 10:59:52;;;;;;;9.15;4.80;;;13.70;99.90;;;;;;5118790;27;20035;-73
2024/03/03 11:02:20;;;;;;;10.65;6.05;;;14.00;99.90;;;;;;5112293;28;20542;-74
2024/03/03 11:04:46;;;;;;;11.90;5.80;;;14.20;99.90;;;;;;5112197;28;20138;-73
2024/03/03 11:07:11;;;;;;;3.47;2.10;;;14.40;99.90;;;;;;5112307;28;20076;-73
2024/03/03 11:09:37;;;;;;;;;;;14.50;99.90;;;;;;5112641;28;19903;-74
2024/03/03 11:12:05;;;;;;;;;;;14.70;99.90;;;;;;5115766;27;20038;-73
2024/03/03 11:14:36;;;;;;;;;;;14.80;99.90;;;;;;5124292;27;20313;-73
2024/03/03 11:17:03;;;;;;;;;;;15.00;99.90;;;;;;5112207;28;20309;-73
2024/03/03 11:19:34;;;;;;;;;;;15.10;99.90;;;;;;5112197;28;20507;-73
2024/03/03 11:22:01;;;;;;;;;;;15.10;99.90;;;;;;5112203;28;20046;-74
2024/03/03 11:24:35;;;;;;;;;;;15.20;99.90;;;;;;5111594;28;20023;-73
2024/03/03 11:27:13;;;;;;;;;;;15.30;99.90;;;;;;5119158;27;20395;-74
2024/03/03 11:29:39;;;;;;;;;;;15.40;99.90;;;;;;5132481;27;20112;-73
2024/03/03 11:32:04;;;;;;;;;;;15.60;99.90;;;;;;5131902;27;20498;-74
2024/03/03 11:34:31;;;;;;;;;;;15.80;99.90;;;;;;5116764;27;20027;-74
2024/03/03 11:36:57;;;;;;;;;;;15.90;99.90;;;;;;5111056;28;19907;-74
2024/03/03 11:39:24;;;;;;;;;;;16.20;99.90;;;;;;5110710;28;20040;-74
2024/03/03 11:41:49;;;;;;;;;;;16.40;99.90;;;;;;5103783;28;19990;-74
2024/03/03 11:44:33;;;;;;;;;;;16.70;99.90;;;;;;5109862;27;19983;-73
2024/03/03 11:47:00;;;;;;;;;;;16.90;99.90;;;;;;5131282;27;19914;-74
2024/03/03 11:49:26;;;;;;;;;;;17.20;99.20;;;;;;5131014;27;19942;-73
2024/03/03 11:51:51;;;;;;;;;;;17.50;98.60;;;;;;5130950;27;19941;-74
2024/03/03 11:54:30;;;;;;;;;;;17.80;96.30;;;;;;5130436;27;24055;-73
2024/03/03 11:56:57;;;;;;;;;;;18.00;95.40;;;;;;5114988;28;19937;-75
2024/03/03 11:59:24;;;;;;;;;;;18.30;95.00;;;;;;5111564;28;20370;-74
2024/03/03 12:01:50;;;;;;;;;;;18.50;93.90;;;;;;5127259;28;20031;-74
2024/03/03 12:04:15;;;;;;;;;;;18.70;92.60;;;;;;5112537;28;20031;-75
2024/03/03 12:06:42;;;;;;;;;;;18.90;92.00;;;;;;5111148;28;20027;-74
2024/03/03 12:09:12;;;;;;;;;;;19.00;91.50;;;;;;5111908;28;20028;-74
2024/03/03 12:11:37;;;;;;;;;;;19.20;91.30;;;;;;5111681;28;20144;-74
2024/03/03 12:14:03;;;;;;;;;;;19.40;90.10;;;;;;5111716;28;20037;-74
2024/03/03 12:16:31;;;;;;;;;;;19.50;89.10;;;;;;5110481;28;20176;-74
2024/03/03 12:18:57;;;;;;;;;;;19.50;90.40;;;;;;5103926;28;20047;-74
2024/03/03 12:21:23;;;;;;;;;;;19.30;86.60;;;;;;5115708;28;20035;-74
2024/03/03 12:23:48;;;;;;;;;;;19.00;87.40;;;;;;5111411;28;20042;-74
2024/03/03 12:26:14;;;;;;;;;;;18.70;89.00;;;;;;5108731;28;20028;-74
2024/03/03 12:28:40;;;;;;;;;;;18.40;89.80;;;;;;5111283;28;20123;-71
2024/03/03 12:31:05;;;;;;;;;;;18.10;89.90;;;;;;5111060;28;20086;-72
2024/03/03 12:33:30;;;;;;;;;;;17.90;90.20;;;;;;5107393;28;20082;-71
2024/03/03 12:35:56;;;;;;;;;;;17.80;89.90;;;;;;5111300;28;20043;-71
2024/03/03 12:38:22;;;;;;;;;;;17.70;90.50;;;;;;5122235;28;20671;-71
2024/03/03 12:40:50;;;;;;;;;;;17.60;90.70;;;;;;5107436;28;20028;-72
2024/03/03 12:43:15;;;;;;;;;;;17.50;91.30;;;;;;5103410;28;20069;-70